Time;durP1;ratioP1;P1;durP2;ratioP2;P2;SDS_P1;SDS_P2;PMS_P1;PMS_P2;Temp;Humidity;BMP_temperature;BMP_pressure;BME280_temperature;BME280_humidity;BME280_pressure;Samples;Min_cycle;Max_cycle;Signal;HPM_P1;HPM_P2
2023/04/07 02:02:00;;;;;;;14.07;12.77;;;7.10;99.90;;;;;;5240175;23;20225;-76
2023/04/07 02:04:33;;;;;;;13.13;11.93;;;7.10;99.90;;;;;;4886497;29;20694;-75
2023/04/07 02:07:06;;;;;;;14.70;12.53;;;7.10;99.90;;;;;;4884437;29;20208;-77
2023/04/07 02:09:40;;;;;;;13.80;12.33;;;7.10;99.90;;;;;;4885269;29;20233;-76
2023/04/07 02:12:14;;;;;;;13.30;12.20;;;7.10;99.90;;;;;;4868476;29;20229;-76
2023/04/07 02:14:48;;;;;;;13.17;11.87;;;7.10;99.90;;;;;;4869999;29;20204;-76
2023/04/07 02:17:18;;;;;;;13.07;11.77;;;7.10;99.90;;;;;;4902700;23;20249;-78
2023/04/07 02:19:47;;;;;;;13.30;12.00;;;7.10;99.90;;;;;;4880363;29;20679;-77
2023/04/07 02:22:16;;;;;;;12.27;11.17;;;7.10;99.90;;;;;;4890035;29;20213;-78
2023/04/07 02:24:43;;;;;;;12.73;11.63;;;7.20;99.90;;;;;;4880590;29;20205;-78
2023/04/07 02:27:10;;;;;;;12.90;11.70;;;7.10;99.90;;;;;;4873759;29;20229;-78
2023/04/07 02:29:37;;;;;;;13.97;12.67;;;7.20;99.90;;;;;;4864234;29;20214;-78
2023/04/07 02:32:03;;;;;;;12.30;11.10;;;7.20;99.90;;;;;;4867197;29;20232;-78
2023/04/07 02:34:31;;;;;;;11.50;10.40;;;7.20;99.90;;;;;;4868815;29;20278;-78
2023/04/07 02:36:59;;;;;;;12.03;10.93;;;7.20;99.90;;;;;;4869902;29;20224;-78
2023/04/07 02:39:27;;;;;;;13.30;11.90;;;7.20;99.90;;;;;;4866966;29;20204;-78
2023/04/07 02:41:54;;;;;;;13.50;12.20;;;7.20;99.90;;;;;;4867754;29;20221;-80
2023/04/07 02:44:21;;;;;;;13.70;12.40;;;7.30;99.90;;;;;;4866678;29;20209;-78
2023/04/07 02:46:47;;;;;;;13.40;12.20;;;7.30;99.90;;;;;;4862158;29;20313;-78
2023/04/07 02:49:14;;;;;;;13.00;11.80;;;7.30;99.90;;;;;;4866740;29;20256;-78
2023/04/07 02:51:42;;;;;;;12.33;11.30;;;7.30;99.90;;;;;;4869526;29;20320;-80
2023/04/07 02:54:09;;;;;;;13.93;12.63;;;7.30;99.90;;;;;;4871381;29;20206;-79
2023/04/07 02:56:36;;;;;;;13.47;12.13;;;7.30;99.90;;;;;;4867475;29;20221;-79
2023/04/07 02:59:03;;;;;;;14.00;12.53;;;7.30;99.90;;;;;;4880845;29;20209;-79
2023/04/07 03:01:35;;;;;;;12.00;10.90;;;7.40;99.90;;;;;;4885214;29;20225;-79
2023/04/07 03:04:11;;;;;;;12.60;11.50;;;7.30;99.90;;;;;;4885430;29;20228;-79
2023/04/07 03:06:38;;;;;;;11.77;10.77;;;7.30;99.90;;;;;;4885751;29;20230;-80
2023/04/07 03:09:14;;;;;;;12.60;11.40;;;7.30;99.90;;;;;;4874995;29;20205;-79
2023/04/07 03:11:41;;;;;;;13.10;11.90;;;7.30;99.90;;;;;;4884575;29;20888;-79
2023/04/07 03:14:08;;;;;;;14.07;12.67;;;7.30;99.90;;;;;;4885216;29;20260;-79
2023/04/07 03:16:42;;;;;;;14.40;12.93;;;7.30;99.90;;;;;;4887294;29;20650;-79
2023/04/07 03:19:12;;;;;;;14.53;13.13;;;7.30;99.90;;;;;;4880655;29;20293;-77
2023/04/07 03:21:50;;;;;;;12.70;11.50;;;7.30;99.90;;;;;;4886869;29;20228;-78
2023/04/07 03:24:22;;;;;;;12.13;11.03;;;7.30;99.90;;;;;;4883345;29;20280;-78
2023/04/07 03:26:50;;;;;;;11.90;10.90;;;7.30;99.90;;;;;;4883187;29;20221;-78
2023/04/07 03:29:43;;;;;;;12.30;11.20;;;7.30;99.90;;;;;;4881285;29;20277;-77
2023/04/07 03:32:13;;;;;;;12.07;10.97;;;7.30;99.90;;;;;;4883689;29;20272;-78
2023/04/07 03:34:40;;;;;;;11.97;10.80;;;7.30;99.90;;;;;;4892261;29;20212;-78
2023/04/07 03:37:06;;;;;;;11.77;10.77;;;7.20;99.90;;;;;;4883990;29;20217;-77
2023/04/07 03:39:39;;;;;;;11.50;10.47;;;7.20;99.90;;;;;;4880824;29;20205;-78
2023/04/07 03:42:19;;;;;;;12.40;11.30;;;7.30;99.90;;;;;;4888355;29;20288;-77
2023/04/07 03:44:47;;;;;;;12.27;11.17;;;7.20;99.90;;;;;;4870551;29;20218;-78
2023/04/07 03:47:15;;;;;;;12.77;11.57;;;7.20;99.90;;;;;;4868066;29;20256;-77
2023/04/07 03:49:42;;;;;;;12.97;11.77;;;7.20;99.90;;;;;;4867530;29;20205;-78
2023/04/07 03:52:09;;;;;;;12.27;11.07;;;7.20;99.90;;;;;;4871672;29;20669;-77
2023/04/07 03:54:38;;;;;;;12.53;11.33;;;7.20;99.90;;;;;;4877320;29;20213;-78
2023/04/07 03:57:05;;;;;;;12.80;11.50;;;7.20;99.90;;;;;;4867040;29;20222;-77
2023/04/07 03:59:37;;;;;;;13.03;11.83;;;7.20;99.90;;;;;;4874415;29;20217;-78
2023/04/07 04:02:06;;;;;;;12.27;11.17;;;7.20;99.90;;;;;;4875397;29;20214;-77
2023/04/07 04:04:33;;;;;;;13.87;12.10;;;7.10;99.90;;;;;;4871388;29;20202;-77
2023/04/07 04:07:01;;;;;;;12.57;11.37;;;7.20;99.90;;;;;;4868236;29;20259;-77
2023/04/07 04:09:41;;;;;;;12.63;11.47;;;7.20;99.90;;;;;;4869590;29;20205;-78
2023/04/07 04:12:08;;;;;;;13.67;12.30;;;7.10;99.90;;;;;;4870414;29;20720;-78
2023/04/07 04:14:40;;;;;;;12.37;11.17;;;7.10;99.90;;;;;;4875843;29;20305;-78
2023/04/07 04:17:09;;;;;;;11.80;10.70;;;7.10;99.90;;;;;;4875210;29;20230;-76
2023/04/07 04:19:42;;;;;;;11.97;10.73;;;7.00;99.90;;;;;;4868258;29;20240;-77
2023/04/07 04:22:20;;;;;;;11.83;10.77;;;7.00;99.90;;;;;;4877011;29;20314;-76
2023/04/07 04:24:55;;;;;;;11.83;10.83;;;7.00;99.90;;;;;;4867344;29;20202;-77
2023/04/07 04:27:24;;;;;;;11.47;10.47;;;7.00;99.90;;;;;;4865292;29;20310;-76
2023/04/07 04:29:57;;;;;;;11.60;10.57;;;7.00;99.90;;;;;;4863819;29;20709;-76
2023/04/07 04:32:34;;;;;;;13.67;12.47;;;7.00;99.90;;;;;;4867252;29;20248;-78
2023/04/07 04:35:01;;;;;;;14.10;12.80;;;7.00;99.90;;;;;;4862211;29;20394;-75
2023/04/07 04:37:31;;;;;;;14.27;12.97;;;7.00;99.90;;;;;;4864962;29;20225;-75
2023/04/07 04:40:00;;;;;;;13.77;12.37;;;6.90;99.90;;;;;;4866695;29;20702;-76
2023/04/07 04:42:30;;;;;;;14.03;12.80;;;6.90;99.90;;;;;;4867059;29;20320;-76
2023/04/07 04:44:58;;;;;;;12.40;11.20;;;6.90;99.90;;;;;;4866882;29;20209;-78
2023/04/07 04:47:26;;;;;;;11.93;10.93;;;6.90;99.90;;;;;;4868623;29;20312;-76
2023/04/07 04:49:53;;;;;;;12.60;11.40;;;6.90;99.90;;;;;;4878150;29;20260;-76
2023/04/07 04:52:20;;;;;;;12.07;11.03;;;6.90;99.90;;;;;;4878306;29;20289;-77
2023/04/07 04:54:49;;;;;;;13.57;12.20;;;6.90;99.90;;;;;;4870535;29;20209;-76
2023/04/07 04:57:18;;;;;;;12.23;11.13;;;6.90;99.90;;;;;;4878217;29;20320;-75
2023/04/07 04:59:45;;;;;;;13.97;12.50;;;6.90;99.90;;;;;;4877801;29;20244;-77
2023/04/07 05:02:12;;;;;;;11.60;10.60;;;6.90;99.90;;;;;;4878022;29;20263;-75
2023/04/07 05:04:39;;;;;;;12.10;11.10;;;6.80;99.90;;;;;;4878131;29;20212;-75
2023/04/07 05:07:33;;;;;;;12.30;11.13;;;6.80;99.90;;;;;;4874142;29;20240;-79
2023/04/07 05:10:00;;;;;;;12.53;11.23;;;6.80;99.90;;;;;;4878037;29;20204;-77
2023/04/07 05:12:28;;;;;;;12.43;11.33;;;6.80;99.90;;;;;;4870140;29;20296;-76
2023/04/07 05:15:00;;;;;;;13.60;12.30;;;6.70;99.90;;;;;;4873865;29;20201;-77
2023/04/07 05:17:27;;;;;;;12.47;11.17;;;6.70;99.90;;;;;;4871465;29;20316;-75
2023/04/07 05:19:54;;;;;;;12.53;11.23;;;6.70;99.90;;;;;;4877192;29;20209;-76
2023/04/07 05:22:33;;;;;;;11.23;10.30;;;6.70;99.90;;;;;;4874994;29;20228;-75
2023/04/07 05:25:00;;;;;;;12.23;11.10;;;6.70;99.90;;;;;;4873823;29;20294;-75
2023/04/07 05:27:28;;;;;;;12.07;10.97;;;6.70;99.90;;;;;;4873491;29;20710;-75
2023/04/07 05:30:01;;;;;;;12.00;10.83;;;6.70;99.90;;;;;;4877388;29;20223;-76
2023/04/07 05:32:32;;;;;;;14.67;13.20;;;6.70;99.90;;;;;;4877669;29;20556;-75
2023/04/07 05:35:05;;;;;;;13.13;11.83;;;6.70;99.90;;;;;;4868983;29;20209;-76
2023/04/07 05:37:35;;;;;;;13.70;12.40;;;6.70;99.90;;;;;;4877144;29;20712;-76
2023/04/07 05:40:05;;;;;;;13.93;12.73;;;6.70;99.90;;;;;;4873571;29;20216;-77
2023/04/07 05:42:34;;;;;;;14.33;13.03;;;6.70;99.90;;;;;;4876008;29;20220;-78
2023/04/07 05:45:02;;;;;;;14.57;13.10;;;6.70;99.90;;;;;;4874400;29;20857;-76
2023/04/07 05:47:29;;;;;;;13.57;12.37;;;6.80;99.90;;;;;;4877579;29;20588;-76
2023/04/07 05:49:56;;;;;;;13.73;12.43;;;6.80;99.90;;;;;;4863918;29;20291;-75
2023/04/07 05:52:23;;;;;;;13.17;11.97;;;6.90;99.90;;;;;;4867431;29;20345;-75
2023/04/07 05:54:58;;;;;;;13.13;11.93;;;6.90;99.90;;;;;;4861693;29;20320;-76
2023/04/07 05:57:29;;;;;;;13.77;12.47;;;7.00;99.90;;;;;;4868959;29;20228;-75
2023/04/07 05:59:59;;;;;;;12.63;11.53;;;7.10;99.90;;;;;;4860703;29;20209;-76
2023/04/07 06:02:25;;;;;;;12.80;11.70;;;7.10;99.90;;;;;;4867956;29;20237;-75
2023/04/07 06:04:53;;;;;;;13.20;12.00;;;7.10;99.90;;;;;;4870081;29;20239;-75
2023/04/07 06:07:20;;;;;;;13.40;12.17;;;7.20;99.90;;;;;;4869971;29;20811;-76
2023/04/07 06:09:47;;;;;;;12.07;11.00;;;7.20;99.90;;;;;;4872246;29;20643;-78
2023/04/07 06:12:15;;;;;;;12.20;11.20;;;7.30;99.90;;;;;;4877882;29;20555;-78
2023/04/07 06:14:42;;;;;;;12.87;11.60;;;7.40;99.90;;;;;;4878173;29;20217;-80
2023/04/07 06:17:10;;;;;;;12.63;11.43;;;7.40;99.90;;;;;;4877890;29;20229;-81
2023/04/07 06:19:37;;;;;;;13.03;11.83;;;7.40;99.90;;;;;;4877440;29;20209;-80
2023/04/07 06:22:04;;;;;;;12.40;11.30;;;7.50;99.90;;;;;;4867039;29;20209;-78
2023/04/07 06:24:31;;;;;;;11.73;10.63;;;7.50;99.90;;;;;;4866880;29;20599;-79
2023/04/07 06:26:58;;;;;;;9.17;8.00;;;7.60;99.90;;;;;;4864913;29;20233;-79
2023/04/07 06:29:25;;;;;;;9.30;8.30;;;7.60;99.90;;;;;;4874478;29;20201;-79
2023/04/07 06:31:52;;;;;;;11.23;8.93;;;7.60;99.90;;;;;;4877046;29;20698;-78
2023/04/07 06:34:21;;;;;;;9.83;8.20;;;7.70;99.90;;;;;;4871965;29;20269;-80
2023/04/07 06:36:48;;;;;;;12.67;8.33;;;7.70;99.90;;;;;;4868048;29;20285;-78
2023/04/07 06:39:14;;;;;;;11.97;7.90;;;7.70;99.90;;;;;;4865580;29;20320;-78
2023/04/07 06:41:42;;;;;;;12.47;7.90;;;7.80;99.90;;;;;;4872384;29;20269;-79
2023/04/07 06:44:09;;;;;;;9.50;7.30;;;7.80;99.90;;;;;;4869670;29;20235;-80
2023/04/07 06:46:36;;;;;;;11.80;8.33;;;7.90;99.90;;;;;;4883629;29;20308;-80
2023/04/07 06:49:03;;;;;;;10.40;7.87;;;7.90;99.90;;;;;;4886854;29;20727;-80
2023/04/07 06:51:32;;;;;;;8.83;7.80;;;8.00;99.90;;;;;;4877269;29;20229;-80
2023/04/07 06:53:58;;;;;;;8.30;7.13;;;8.10;99.90;;;;;;4881353;29;20211;-80
2023/04/07 06:56:26;;;;;;;10.17;9.07;;;8.30;99.90;;;;;;4882250;29;20225;-81
2023/04/07 06:58:53;;;;;;;10.83;9.73;;;8.50;99.90;;;;;;4873146;29;20218;-81
2023/04/07 07:01:20;;;;;;;11.30;10.20;;;8.70;99.90;;;;;;4885052;29;20196;-81
2023/04/07 07:03:47;;;;;;;10.67;9.70;;;8.90;99.90;;;;;;4885676;29;20763;-80
2023/04/07 07:06:14;;;;;;;12.40;11.10;;;9.20;99.90;;;;;;4877954;29;20257;-80
2023/04/07 07:08:42;;;;;;;12.13;7.80;;;9.30;99.90;;;;;;4877004;29;20273;-79
2023/04/07 07:11:09;;;;;;;8.33;7.40;;;9.40;99.90;;;;;;4874745;29;20257;-80
2023/04/07 07:13:36;;;;;;;9.67;7.57;;;9.30;99.90;;;;;;4883340;29;20226;-79
2023/04/07 07:16:02;;;;;;;10.07;8.03;;;9.40;99.90;;;;;;4876788;29;20234;-80
2023/04/07 07:18:29;;;;;;;8.57;7.27;;;9.20;99.90;;;;;;4885841;29;20697;-81
2023/04/07 07:20:57;;;;;;;8.00;6.83;;;9.20;99.90;;;;;;4898145;29;20205;-81
2023/04/07 07:23:23;;;;;;;8.90;7.03;;;9.10;99.90;;;;;;4884055;29;20225;-81
2023/04/07 07:25:51;;;;;;;10.53;8.03;;;9.10;99.90;;;;;;4881825;29;20221;-80
2023/04/07 07:28:20;;;;;;;8.63;6.93;;;9.10;99.90;;;;;;4874078;29;20701;-81
2023/04/07 07:30:47;;;;;;;9.90;7.70;;;9.10;99.90;;;;;;4879910;29;20268;-81
2023/04/07 07:33:14;;;;;;;11.43;10.33;;;9.20;99.90;;;;;;4895581;29;20207;-81
2023/04/07 07:35:41;;;;;;;11.60;10.00;;;9.30;99.90;;;;;;4879955;29;20252;-82
2023/04/07 07:38:08;;;;;;;13.67;12.47;;;9.50;99.90;;;;;;4891411;29;20210;-84
2023/04/07 07:40:34;;;;;;;11.77;10.67;;;9.70;99.90;;;;;;4882899;29;20285;-82
2023/04/07 07:43:03;;;;;;;12.60;11.50;;;9.90;99.90;;;;;;4885706;29;20252;-79
2023/04/07 07:45:29;;;;;;;12.70;11.20;;;10.20;99.90;;;;;;4887232;29;20225;-79
2023/04/07 07:47:56;;;;;;;11.80;10.70;;;10.20;99.90;;;;;;4878588;29;20263;-80
2023/04/07 07:50:23;;;;;;;9.80;8.90;;;10.30;99.90;;;;;;4866045;29;20212;-82
2023/04/07 07:52:50;;;;;;;11.03;9.93;;;10.40;99.90;;;;;;4872243;29;20210;-81
2023/04/07 07:55:17;;;;;;;11.47;10.07;;;10.60;99.90;;;;;;4876928;29;20204;-83
2023/04/07 07:57:43;;;;;;;10.50;9.40;;;10.70;99.90;;;;;;4873755;29;20695;-80
2023/04/07 08:00:13;;;;;;;11.00;9.90;;;10.80;99.90;;;;;;4874966;29;20204;-80
2023/04/07 08:02:40;;;;;;;11.23;10.33;;;11.10;99.90;;;;;;4881378;29;20300;-82
2023/04/07 08:05:07;;;;;;;11.93;10.83;;;11.30;99.90;;;;;;4879105;29;20247;-82
2023/04/07 08:07:34;;;;;;;11.93;10.90;;;11.40;99.90;;;;;;4873120;29;20277;-77
2023/04/07 08:10:01;;;;;;;11.57;10.57;;;11.60;99.90;;;;;;4879219;29;20236;-77
2023/04/07 08:12:28;;;;;;;11.10;10.10;;;11.80;99.90;;;;;;4878714;29;20201;-77
2023/04/07 08:14:54;;;;;;;11.60;10.50;;;12.00;99.90;;;;;;4877990;29;20205;-77
2023/04/07 08:17:23;;;;;;;11.23;10.23;;;12.20;99.90;;;;;;4910965;23;20327;-76
2023/04/07 08:19:49;;;;;;;12.43;11.13;;;12.30;99.90;;;;;;4898276;29;20205;-76
2023/04/07 08:22:18;;;;;;;12.47;11.23;;;12.50;99.90;;;;;;4898643;29;20629;-76
2023/04/07 08:24:46;;;;;;;12.13;11.03;;;12.60;99.90;;;;;;4906122;29;20312;-76
2023/04/07 08:27:13;;;;;;;10.90;10.00;;;12.50;99.90;;;;;;4898847;29;20699;-77
2023/04/07 08:29:39;;;;;;;11.43;10.43;;;12.70;99.90;;;;;;4879538;29;20206;-76
2023/04/07 08:32:06;;;;;;;8.07;7.27;;;13.10;99.90;;;;;;4896585;29;20212;-77
2023/04/07 08:34:34;;;;;;;10.87;9.63;;;13.00;99.90;;;;;;4884223;29;20272;-78
2023/04/07 08:37:01;;;;;;;9.17;8.07;;;13.00;99.90;;;;;;4890014;29;20245;-79
2023/04/07 08:39:28;;;;;;;7.07;6.30;;;13.00;99.90;;;;;;4891638;29;20669;-78
2023/04/07 08:41:56;;;;;;;7.23;6.17;;;12.80;99.90;;;;;;4888626;29;20201;-81
2023/04/07 08:44:24;;;;;;;6.30;5.70;;;12.60;99.90;;;;;;4894720;29;20228;-80
2023/04/07 08:46:55;;;;;;;7.93;7.03;;;12.70;99.90;;;;;;4883860;29;20301;-80
2023/04/07 08:49:24;;;;;;;5.87;5.20;;;12.70;99.90;;;;;;4900090;29;20197;-79
2023/04/07 08:51:54;;;;;;;9.70;8.90;;;12.80;99.90;;;;;;4885580;29;20242;-77
2023/04/07 08:54:21;;;;;;;9.70;8.90;;;13.00;99.90;;;;;;4885734;29;20750;-76
2023/04/07 08:56:48;;;;;;;9.73;9.07;;;13.10;99.90;;;;;;4887813;29;20228;-78
2023/04/07 08:59:17;;;;;;;9.07;8.37;;;12.90;99.90;;;;;;4886292;29;20256;-77
2023/04/07 09:01:44;;;;;;;9.10;8.40;;;12.90;99.90;;;;;;4886123;29;20277;-76
2023/04/07 09:04:11;;;;;;;9.87;9.07;;;13.20;99.90;;;;;;4880308;29;20608;-76
2023/04/07 09:06:38;;;;;;;9.33;8.53;;;13.50;99.90;;;;;;4887336;29;20308;-77
2023/04/07 09:09:06;;;;;;;9.87;9.00;;;13.60;99.90;;;;;;4886235;29;20224;-76
2023/04/07 09:11:36;;;;;;;9.40;8.70;;;14.00;99.90;;;;;;4889851;29;20206;-77
2023/04/07 09:14:03;;;;;;;8.37;7.67;;;14.30;99.90;;;;;;4889282;29;20207;-77
2023/04/07 09:16:30;;;;;;;6.63;6.03;;;14.60;99.90;;;;;;4891426;29;20247;-76
2023/04/07 09:18:57;;;;;;;8.00;7.10;;;14.90;99.90;;;;;;4893665;29;20290;-76
2023/04/07 09:21:25;;;;;;;6.87;4.83;;;15.10;99.90;;;;;;4891684;29;20673;-77
2023/04/07 09:23:53;;;;;;;7.03;6.33;;;15.30;99.90;;;;;;4889521;29;20221;-77
2023/04/07 09:26:23;;;;;;;7.10;4.77;;;15.30;99.90;;;;;;4896320;29;20251;-76
2023/04/07 09:28:54;;;;;;;6.33;5.50;;;15.60;99.90;;;;;;4894752;29;20200;-77
2023/04/07 09:31:22;;;;;;;7.60;6.80;;;16.00;99.90;;;;;;4904130;29;20209;-77
2023/04/07 09:33:49;;;;;;;6.37;5.47;;;16.00;99.90;;;;;;4887941;29;20208;-77
2023/04/07 09:36:16;;;;;;;5.13;4.53;;;15.90;99.90;;;;;;4887106;29;20256;-77
2023/04/07 09:38:44;;;;;;;4.83;4.00;;;16.30;99.90;;;;;;4908696;29;20208;-77
2023/04/07 09:41:13;;;;;;;7.03;4.43;;;16.50;99.90;;;;;;4893550;29;20204;-76
2023/04/07 09:43:44;;;;;;;4.27;3.27;;;16.30;99.90;;;;;;4890733;29;20219;-78
2023/04/07 09:46:13;;;;;;;4.27;3.73;;;16.80;99.90;;;;;;4879142;29;20218;-77
2023/04/07 09:48:41;;;;;;;4.93;4.10;;;16.90;99.90;;;;;;4892952;29;20200;-78
2023/04/07 09:51:10;;;;;;;5.10;3.87;;;16.70;99.90;;;;;;4887340;29;20206;-76
2023/04/07 09:53:46;;;;;;;6.53;4.03;;;16.80;99.90;;;;;;4882330;29;20202;-76
2023/04/07 09:56:15;;;;;;;5.57;4.10;;;16.80;99.90;;;;;;4900149;29;20268;-79
2023/04/07 09:58:44;;;;;;;5.70;4.00;;;16.70;99.90;;;;;;4906689;29;20237;-79
2023/04/07 10:01:15;;;;;;;5.67;3.93;;;15.90;99.90;;;;;;4888740;29;20664;-78
2023/04/07 10:03:43;;;;;;;4.83;3.13;;;15.50;99.90;;;;;;4903205;29;20202;-76
2023/04/07 10:06:10;;;;;;;4.80;2.70;;;15.30;99.90;;;;;;4888432;29;20308;-78
2023/04/07 10:08:39;;;;;;;4.10;2.93;;;15.60;99.90;;;;;;4893381;29;20642;-79
2023/04/07 10:11:07;;;;;;;4.37;2.60;;;15.40;99.90;;;;;;4901211;29;20213;-79
2023/04/07 10:13:35;;;;;;;4.00;3.13;;;15.90;99.90;;;;;;4896179;29;20224;-78
2023/04/07 10:16:06;;;;;;;5.90;3.43;;;16.00;99.90;;;;;;4892278;29;20216;-77
2023/04/07 10:18:35;;;;;;;3.23;2.53;;;15.50;99.90;;;;;;4889387;29;20204;-79
2023/04/07 10:21:03;;;;;;;4.17;3.17;;;15.70;99.90;;;;;;4888428;29;20198;-78
2023/04/07 10:23:39;;;;;;;5.17;2.67;;;15.70;99.90;;;;;;4893105;29;20238;-78
2023/04/07 10:26:07;;;;;;;6.37;2.73;;;16.40;99.90;;;;;;4889310;29;20252;-82
2023/04/07 10:28:38;;;;;;;3.60;2.97;;;16.90;99.90;;;;;;4879296;29;20311;-82
2023/04/07 10:31:07;;;;;;;4.60;2.90;;;17.10;99.90;;;;;;4893084;29;20214;-80
2023/04/07 10:33:48;;;;;;;5.27;3.13;;;17.30;99.90;;;;;;4904847;29;20239;-83
2023/04/07 10:36:16;;;;;;;4.50;3.00;;;17.40;99.90;;;;;;4902402;29;20234;-76
2023/04/07 10:39:21;;;;;;;3.87;3.13;;;17.40;99.90;;;;;;4888503;29;20207;-82
2023/04/07 10:41:48;;;;;;;5.90;3.40;;;17.20;99.90;;;;;;4883406;29;20223;-80
2023/04/07 10:44:47;;;;;;;6.17;3.80;;;16.70;99.90;;;;;;4908414;29;20227;-80
2023/04/07 10:47:14;;;;;;;4.63;4.20;;;16.10;99.90;;;;;;4907441;29;20221;-76
2023/04/07 10:50:17;;;;;;;4.13;3.40;;;15.90;99.90;;;;;;4904783;29;20212;-79
2023/04/07 10:52:45;;;;;;;3.83;3.00;;;16.10;99.90;;;;;;4887169;29;20240;-82
2023/04/07 10:55:34;;;;;;;4.50;3.23;;;16.20;99.90;;;;;;4873707;29;20696;-82
2023/04/07 10:58:19;;;;;;;4.63;4.13;;;16.40;99.90;;;;;;4889224;29;20734;-80
2023/04/07 11:01:16;;;;;;;4.10;3.50;;;16.10;99.90;;;;;;4887608;29;20291;-78
2023/04/07 11:03:54;;;;;;;4.47;3.60;;;16.10;99.90;;;;;;4885802;29;20203;-77
2023/04/07 11:06:21;;;;;;;5.70;3.30;;;16.00;99.90;;;;;;4887978;29;20268;-81
2023/04/07 11:08:49;;;;;;;5.77;3.57;;;15.80;99.90;;;;;;4874964;29;21697;-76
2023/04/07 11:11:39;;;;;;;3.13;2.80;;;16.10;99.90;;;;;;4891387;29;20219;-77
2023/04/07 11:14:06;;;;;;;6.23;3.50;;;16.20;99.90;;;;;;4903463;29;20205;-77
2023/04/07 11:16:41;;;;;;;6.13;3.60;;;16.10;99.90;;;;;;4887247;29;20649;-78
2023/04/07 11:19:08;;;;;;;4.17;3.03;;;15.90;99.90;;;;;;4871516;29;20682;-78
2023/04/07 11:21:36;;;;;;;6.37;3.60;;;16.00;99.90;;;;;;4887265;29;20210;-79
2023/04/07 11:24:03;;;;;;;3.70;3.30;;;16.00;99.90;;;;;;4884068;29;20214;-78
2023/04/07 11:26:38;;;;;;;5.97;3.60;;;15.90;99.90;;;;;;4889445;29;20730;-76
2023/04/07 11:29:05;;;;;;;5.27;3.17;;;15.80;99.90;;;;;;4878818;29;20685;-79
2023/04/07 11:31:32;;;;;;;3.53;3.23;;;15.90;99.90;;;;;;4884884;29;20221;-78
2023/04/07 11:34:01;;;;;;;3.93;3.37;;;16.20;99.90;;;;;;4883175;29;20254;-77
2023/04/07 11:36:31;;;;;;;5.57;3.17;;;16.20;99.90;;;;;;4890380;29;20227;-76
2023/04/07 11:38:58;;;;;;;5.47;3.60;;;16.30;99.90;;;;;;4897570;29;20661;-78
2023/04/07 11:41:27;;;;;;;4.50;3.13;;;16.20;99.90;;;;;;4907865;29;20256;-76
2023/04/07 11:44:08;;;;;;;3.83;3.10;;;15.90;99.90;;;;;;4887054;29;20276;-77
2023/04/07 11:46:36;;;;;;;5.13;3.40;;;15.80;99.90;;;;;;4891552;29;20221;-77
2023/04/07 11:49:11;;;;;;;4.67;3.50;;;15.90;99.90;;;;;;4893001;29;20649;-76
2023/04/07 11:51:38;;;;;;;4.33;3.93;;;15.50;99.90;;;;;;4886723;29;20671;-77
2023/04/07 11:54:05;;;;;;;3.37;2.33;;;15.30;99.90;;;;;;4894005;29;20209;-81
2023/04/07 11:56:42;;;;;;;3.77;2.17;;;15.10;99.90;;;;;;4884918;29;20246;-78
2023/04/07 11:59:21;;;;;;;5.43;3.63;;;15.00;99.90;;;;;;4895697;29;20295;-81
2023/04/07 12:01:49;;;;;;;3.60;3.30;;;14.90;99.90;;;;;;4893844;29;20223;-81
2023/04/07 12:04:16;;;;;;;3.50;3.20;;;15.00;99.90;;;;;;4886333;29;20695;-80
2023/04/07 12:06:44;;;;;;;2.40;1.90;;;14.80;99.90;;;;;;4894751;29;20235;-80
2023/04/07 12:09:27;;;;;;;3.60;1.90;;;14.70;99.90;;;;;;4885349;29;20232;-79
2023/04/07 12:11:55;;;;;;;3.00;1.87;;;14.50;99.90;;;;;;4897172;29;20236;-80
2023/04/07 12:14:24;;;;;;;1.87;1.70;;;14.50;99.90;;;;;;4889561;29;20231;-80
2023/04/07 12:16:51;;;;;;;2.30;1.90;;;14.60;99.90;;;;;;4898195;29;20234;-81
2023/04/07 12:19:18;;;;;;;3.30;1.90;;;14.70;99.90;;;;;;4896487;29;20212;-80
2023/04/07 12:21:45;;;;;;;2.63;2.20;;;14.90;99.90;;;;;;4888081;29;20216;-80
2023/04/07 12:24:12;;;;;;;2.83;2.40;;;15.00;99.90;;;;;;4889335;29;20198;-81
2023/04/07 12:26:39;;;;;;;3.17;2.97;;;15.10;99.90;;;;;;4889703;29;20229;-81
2023/04/07 12:29:05;;;;;;;6.07;3.70;;;15.30;99.90;;;;;;4889735;29;20205;-81
2023/04/07 12:31:34;;;;;;;3.63;2.50;;;15.40;99.90;;;;;;4887856;29;20205;-79
2023/04/07 12:34:01;;;;;;;2.60;2.00;;;15.20;99.90;;;;;;4887861;29;20213;-81
2023/04/07 12:36:28;;;;;;;4.33;2.00;;;15.00;99.90;;;;;;4877504;29;20221;-80
2023/04/07 12:38:55;;;;;;;1.80;1.70;;;14.90;99.90;;;;;;4886992;29;20199;-79
2023/04/07 12:41:22;;;;;;;2.20;2.00;;;15.00;99.90;;;;;;4899793;29;20216;-80
2023/04/07 12:43:49;;;;;;;2.33;1.80;;;15.00;99.90;;;;;;4909608;29;20675;-80
2023/04/07 12:46:16;;;;;;;3.93;2.00;;;15.20;99.90;;;;;;4889207;29;20235;-81
2023/04/07 12:48:47;;;;;;;2.07;1.77;;;15.40;99.90;;;;;;4896834;29;20287;-80
2023/04/07 12:51:14;;;;;;;1.87;1.73;;;15.60;99.90;;;;;;4903087;29;20580;-79
2023/04/07 12:53:41;;;;;;;2.20;1.70;;;15.50;99.90;;;;;;4891068;29;20206;-80
2023/04/07 12:56:08;;;;;;;1.50;1.40;;;15.30;99.90;;;;;;4893686;29;20244;-80
2023/04/07 12:58:34;;;;;;;1.90;1.80;;;15.30;99.90;;;;;;4896899;29;20260;-80
2023/04/07 13:01:01;;;;;;;2.47;1.80;;;15.40;99.90;;;;;;4892775;29;20216;-80
2023/04/07 13:03:28;;;;;;;1.90;1.80;;;15.50;99.90;;;;;;4878699;29;20257;-81
2023/04/07 13:06:00;;;;;;;3.07;2.60;;;15.70;99.90;;;;;;4903141;29;20712;-80
2023/04/07 13:08:28;;;;;;;3.53;2.10;;;15.70;99.90;;;;;;4889846;29;20197;-81
2023/04/07 13:10:55;;;;;;;2.90;2.33;;;15.60;99.90;;;;;;4889998;29;20209;-80
2023/04/07 13:13:22;;;;;;;2.07;1.87;;;15.30;99.90;;;;;;4887791;29;20578;-81
2023/04/07 13:15:52;;;;;;;2.10;1.90;;;15.50;99.90;;;;;;4894186;29;20580;-81
2023/04/07 13:18:18;;;;;;;2.63;1.80;;;15.60;99.90;;;;;;4887978;29;20265;-78
2023/04/07 13:20:46;;;;;;;1.83;1.67;;;15.40;99.90;;;;;;4868407;29;20485;-78
2023/04/07 13:23:14;;;;;;;2.20;1.90;;;15.30;99.90;;;;;;4880406;29;20640;-79
2023/04/07 13:25:41;;;;;;;1.80;1.70;;;15.30;99.90;;;;;;4886911;29;20242;-77
2023/04/07 13:28:08;;;;;;;2.07;1.70;;;15.40;99.90;;;;;;4897034;29;20225;-76
2023/04/07 13:30:35;;;;;;;3.03;2.73;;;15.30;99.90;;;;;;4890096;29;20205;-77
2023/04/07 13:33:02;;;;;;;2.60;1.90;;;14.80;99.90;;;;;;4895248;29;20205;-77
2023/04/07 13:35:32;;;;;;;2.50;2.30;;;14.90;99.90;;;;;;4892151;29;20249;-77
2023/04/07 13:37:59;;;;;;;2.27;2.03;;;14.90;99.90;;;;;;4889764;29;20236;-77
2023/04/07 13:40:27;;;;;;;3.80;2.27;;;14.80;99.90;;;;;;4890874;29;20206;-78
2023/04/07 13:42:54;;;;;;;4.00;2.40;;;14.40;99.90;;;;;;4884746;29;20211;-78
2023/04/07 13:45:20;;;;;;;2.23;1.97;;;14.20;99.90;;;;;;4893529;29;20226;-79
2023/04/07 13:47:47;;;;;;;3.13;2.40;;;14.20;99.90;;;;;;4886700;29;20230;-77
2023/04/07 13:50:14;;;;;;;3.60;3.30;;;14.10;99.90;;;;;;4893397;29;20250;-77
2023/04/07 13:52:41;;;;;;;4.00;3.60;;;13.90;99.90;;;;;;4903522;29;20219;-81
2023/04/07 13:55:09;;;;;;;4.53;3.83;;;13.70;99.90;;;;;;4901734;29;20198;-82
2023/04/07 13:57:37;;;;;;;5.37;4.20;;;13.60;99.90;;;;;;4887096;29;20220;-82
2023/04/07 14:00:06;;;;;;;4.50;3.97;;;13.50;99.90;;;;;;4889104;29;20264;-82
2023/04/07 14:02:35;;;;;;;4.07;3.73;;;13.50;99.90;;;;;;4879271;29;20216;-78
2023/04/07 14:05:02;;;;;;;3.80;3.50;;;13.60;99.90;;;;;;4885797;29;20226;-79
2023/04/07 14:07:29;;;;;;;3.80;3.50;;;13.80;99.90;;;;;;4884340;29;20221;-77
2023/04/07 14:09:57;;;;;;;5.63;5.13;;;14.00;99.90;;;;;;4887566;29;20208;-76
2023/04/07 14:12:24;;;;;;;4.80;4.40;;;14.10;99.90;;;;;;4881045;29;20224;-78
2023/04/07 14:14:53;;;;;;;3.70;3.40;;;14.40;99.90;;;;;;4877813;29;20269;-77
2023/04/07 14:17:20;;;;;;;4.93;3.83;;;14.50;99.90;;;;;;4875699;29;20226;-77
2023/04/07 14:19:48;;;;;;;5.10;3.40;;;14.60;99.90;;;;;;4882869;29;20669;-77
2023/04/07 14:22:15;;;;;;;3.33;3.07;;;14.70;99.90;;;;;;4876410;29;20231;-77
2023/04/07 14:24:42;;;;;;;3.70;3.40;;;14.80;99.90;;;;;;4872808;29;20394;-77
2023/04/07 14:27:09;;;;;;;4.77;3.43;;;14.80;99.90;;;;;;4876192;29;20226;-76
2023/04/07 14:29:36;;;;;;;3.13;2.93;;;14.50;99.90;;;;;;4885340;29;20208;-76
2023/04/07 14:32:04;;;;;;;3.27;2.97;;;14.40;99.90;;;;;;4891676;29;20200;-76
2023/04/07 14:34:31;;;;;;;3.03;2.83;;;14.30;99.90;;;;;;4888893;29;20206;-76
2023/04/07 14:36:58;;;;;;;3.30;3.00;;;14.10;99.90;;;;;;4893603;29;20798;-78
2023/04/07 14:39:25;;;;;;;3.37;3.07;;;14.00;99.90;;;;;;4888364;29;20720;-76
2023/04/07 14:41:53;;;;;;;3.20;3.00;;;14.00;99.90;;;;;;4882604;29;20211;-76
2023/04/07 14:44:20;;;;;;;3.20;3.00;;;14.20;99.90;;;;;;4890625;29;20207;-77
2023/04/07 14:46:47;;;;;;;3.40;3.20;;;14.20;99.90;;;;;;4885531;29;20235;-76
2023/04/07 14:49:15;;;;;;;3.03;2.73;;;14.30;99.90;;;;;;4896839;29;20215;-77
2023/04/07 14:51:42;;;;;;;4.40;3.07;;;14.50;99.90;;;;;;4879809;29;20207;-77
2023/04/07 14:54:08;;;;;;;3.20;3.00;;;14.50;99.90;;;;;;4893026;29;20207;-77